createdAt,value
2018-06-09T00:00:56.127Z,101813.87
2018-06-09T00:03:24.362Z,101812.98
2018-06-09T00:05:52.198Z,101812.98
2018-06-09T00:08:19.876Z,101813.87
2018-06-09T00:10:48.024Z,101813.37
2018-06-09T00:13:15.716Z,101814.70
2018-06-09T00:15:43.380Z,101806.72
2018-06-09T00:18:11.463Z,101803.59
2018-06-09T00:20:39.137Z,101798.27
2018-06-09T00:23:06.753Z,101803.53
2018-06-09T00:25:35.028Z,101807.53
2018-06-09T00:28:02.705Z,101805.32
2018-06-09T00:30:30.350Z,101809.68
2018-06-09T00:32:58.497Z,101810.95
2018-06-09T00:35:26.156Z,101803.80
2018-06-09T00:37:53.812Z,101806.83
2018-06-09T00:40:22.238Z,101805.38
2018-06-09T00:42:50.220Z,101803.10
2018-06-09T00:45:18.388Z,101807.42
2018-06-09T00:47:47.461Z,101800.70
2018-06-09T00:50:15.527Z,101806.78
2018-06-09T00:52:43.384Z,101808.05
2018-06-09T00:55:12.189Z,101808.38
2018-06-09T00:57:39.918Z,101809.20
2018-06-09T01:00:07.607Z,101806.02
2018-06-09T01:02:35.741Z,101802.34
2018-06-09T01:05:03.861Z,101805.38
2018-06-09T01:07:31.523Z,101802.64
2018-06-09T01:09:59.546Z,101799.91
2018-06-09T01:12:27.225Z,101801.63
2018-06-09T01:14:54.905Z,101799.36
2018-06-09T01:17:22.837Z,101797.05
2018-06-09T01:19:50.597Z,101799.66
2018-06-09T01:22:18.274Z,101795.91
2018-06-09T01:24:46.356Z,101794.06
2018-06-09T01:27:14.258Z,101798.39
2018-06-09T01:29:41.865Z,101798.26
2018-06-09T01:32:10.109Z,101800.80
2018-06-09T01:34:37.789Z,101794.06
2018-06-09T01:37:05.397Z,101791.75
2018-06-09T01:39:33.370Z,101796.08
2018-06-09T01:42:01.069Z,101790.67
2018-06-09T01:44:28.743Z,101799.55
2018-06-09T01:46:57.043Z,101798.55
2018-06-09T01:49:24.646Z,101799.87
2018-06-09T01:51:52.418Z,101801.08
2018-06-09T01:54:20.414Z,101800.69
2018-06-09T01:56:48.102Z,101803.36
2018-06-09T01:59:16.227Z,101805.15
2018-06-09T02:01:44.376Z,101795.87
2018-06-09T02:04:11.976Z,101798.16
2018-06-09T02:06:39.586Z,101794.61
2018-06-09T02:09:08.633Z,101805.28
2018-06-09T02:11:36.300Z,101797.80
2018-06-09T02:14:03.968Z,101793.41
2018-06-09T02:16:32.181Z,101796.59
2018-06-09T02:18:59.799Z,101802.94
2018-06-09T02:21:27.500Z,101798.12
2018-06-09T02:23:55.590Z,101795.91
2018-06-09T02:26:23.249Z,101798.65
2018-06-09T02:28:50.853Z,101789.31
2018-06-09T02:31:19.119Z,101792.05
2018-06-09T02:33:46.748Z,101788.11
2018-06-09T02:36:14.334Z,101787.27
2018-06-09T02:38:42.442Z,101788.17
2018-06-09T02:41:10.106Z,101779.27
2018-06-09T02:43:37.807Z,101781.93
2018-06-09T02:46:06.059Z,101784.59
2018-06-09T02:48:33.670Z,101778.38
2018-06-09T02:51:01.335Z,101776.59
2018-06-09T02:53:29.313Z,101775.72
2018-06-09T02:55:57.009Z,101771.33
2018-06-09T02:58:24.692Z,101765.56
2018-06-09T03:00:52.643Z,101766.58
2018-06-09T03:03:20.341Z,101770.58
2018-06-09T03:05:48.001Z,101769.77
2018-06-09T03:08:16.130Z,101772.50
2018-06-09T03:10:43.738Z,101772.17
2018-06-09T03:13:11.323Z,101778.97
2018-06-09T03:15:39.705Z,101778.16
2018-06-09T03:18:07.361Z,101775.62
2018-06-09T03:20:35.055Z,101729.43
2018-06-09T03:23:03.205Z,101782.96
2018-06-09T03:25:30.971Z,101776.39
2018-06-09T03:27:58.595Z,101778.80
2018-06-09T03:30:26.584Z,101779.31
2018-06-09T03:32:54.211Z,101784.77
2018-06-09T03:35:21.847Z,101784.56
2018-06-09T03:37:49.844Z,101781.76
2018-06-09T03:40:17.443Z,101777.52
2018-06-09T03:42:45.060Z,101777.71
2018-06-09T03:45:13.348Z,101774.72
2018-06-09T03:47:41.018Z,101777.44
2018-06-09T03:50:08.700Z,101773.90
2018-06-09T03:52:36.671Z,101776.63
2018-06-09T03:55:04.280Z,101783.34
2018-06-09T03:57:31.936Z,101786.95
2018-06-09T04:00:00.244Z,101777.62
2018-06-09T04:02:27.878Z,101781.20
2018-06-09T04:04:55.558Z,101778.47
2018-06-09T04:07:23.689Z,101776.69
2018-06-09T04:09:51.340Z,101781.08
2018-06-09T04:12:19.061Z,101778.90
2018-06-09T04:14:48.108Z,101781.95
2018-06-09T04:17:15.757Z,101784.56
2018-06-09T04:19:43.422Z,101785.77
2018-06-09T04:22:11.689Z,101785.64
2018-06-09T04:24:39.306Z,101781.06
2018-06-09T04:27:06.882Z,101789.75
2018-06-09T04:29:35.123Z,101784.62
2018-06-09T04:32:02.778Z,101783.17
2018-06-09T04:34:30.445Z,101783.38
2018-06-09T04:36:58.681Z,101789.78
2018-06-09T04:39:26.396Z,101786.89
2018-06-09T04:41:54.007Z,101795.48
2018-06-09T04:44:21.964Z,101795.66
2018-06-09T04:46:49.671Z,101791.39
2018-06-09T04:49:17.388Z,101789.25
2018-06-09T04:51:45.674Z,101780.06
2018-06-09T04:54:13.236Z,101786.86
2018-06-09T04:56:40.865Z,101783.92
2018-06-09T04:59:09.061Z,101777.87
2018-06-09T05:01:36.812Z,101780.61
2018-06-09T05:04:04.447Z,101773.99
2018-06-09T05:06:32.498Z,101770.59
2018-06-09T05:09:00.142Z,101778.64
2018-06-09T05:14:26.335Z,101775.72
2018-06-09T05:16:53.950Z,101768.77
2018-06-09T05:19:21.778Z,101778.59
2018-06-09T05:21:49.652Z,101778.23
2018-06-09T05:24:17.262Z,101773.91
2018-06-09T05:26:45.066Z,101767.25
2018-06-09T05:29:13.321Z,101768.67
2018-06-09T05:31:40.977Z,101770.59
2018-06-09T05:34:08.828Z,101771.98
2018-06-09T05:36:36.712Z,101763.23
2018-06-09T05:39:06.300Z,101760.61
2018-06-09T05:41:33.975Z,101760.69
2018-06-09T05:44:02.621Z,101759.39
2018-06-09T05:46:30.290Z,101759.46
2018-06-09T05:48:58.091Z,101758.13
2018-06-09T05:51:26.203Z,101758.69
2018-06-09T05:53:53.812Z,101756.03
2018-06-09T05:56:21.614Z,101764.52
2018-06-09T05:58:49.764Z,101763.61
2018-06-09T06:01:17.392Z,101765.89
2018-06-09T06:03:45.158Z,101767.62
2018-06-09T06:06:13.141Z,101759.19
2018-06-09T06:08:40.730Z,101767.77
2018-06-09T06:11:08.466Z,101758.99
2018-06-09T06:13:36.418Z,101761.67
2018-06-09T06:16:04.398Z,101761.89
2018-06-09T06:18:31.521Z,101762.52
2018-06-09T06:20:59.198Z,101754.69
2018-06-09T06:23:26.213Z,101757.04
2018-06-09T06:25:53.337Z,101756.32
2018-06-09T06:28:20.641Z,101754.73
2018-06-09T06:30:47.613Z,101758.91
2018-06-09T06:33:14.872Z,101763.05
2018-06-09T06:35:42.407Z,101754.38
2018-06-09T06:38:09.400Z,101754.12
2018-06-09T06:40:37.114Z,101753.86
2018-06-09T06:43:05.048Z,101760.69
2018-06-09T06:45:32.805Z,101757.28
2018-06-09T06:48:00.593Z,101758.36
2018-06-09T06:50:28.770Z,101769.62
2018-06-09T06:52:56.474Z,101762.73
2018-06-09T06:55:23.701Z,101755.72
2018-06-09T06:57:50.919Z,101760.73
2018-06-09T07:00:18.011Z,101761.22
2018-06-09T07:02:45.115Z,101756.46
2018-06-09T07:05:12.295Z,101757.86
2018-06-09T07:07:39.401Z,101746.86
2018-06-09T07:10:06.625Z,101748.59
2018-06-09T07:12:33.921Z,101750.06
2018-06-09T07:15:00.919Z,101741.28
2018-06-09T07:17:28.019Z,101745.03
2018-06-09T07:19:55.409Z,101742.44
2018-06-09T07:22:22.489Z,101733.14
2018-06-09T07:24:49.596Z,101732.49
2018-06-09T07:27:16.917Z,101735.46
2018-06-09T07:29:44.661Z,101735.97
2018-06-09T07:32:11.940Z,101733.69
2018-06-09T07:34:39.350Z,101734.38
2018-06-09T07:37:06.410Z,101741.65
2018-06-09T07:39:34.205Z,101735.24
2018-06-09T07:42:02.000Z,101737.65
2018-06-09T07:44:29.661Z,101740.89
2018-06-09T07:46:57.469Z,101739.30
2018-06-09T07:49:25.412Z,101749.20
2018-06-09T07:51:53.066Z,101736.25
2018-06-09T07:54:20.953Z,101740.37
2018-06-09T07:56:49.004Z,101737.60
2018-06-09T07:59:16.082Z,101732.11
2018-06-09T08:01:43.330Z,101731.34
2018-06-09T08:04:11.288Z,101730.17
2018-06-09T08:06:38.323Z,101736.50
2018-06-09T08:09:05.767Z,101725.95
2018-06-09T08:11:32.919Z,101728.45
2018-06-09T08:14:00.048Z,101717.48
2018-06-09T08:16:27.219Z,101722.56
2018-06-09T08:18:54.526Z,101714.57
2018-06-09T08:21:21.625Z,101711.48
2018-06-09T08:23:48.832Z,101716.45
2018-06-09T08:26:16.907Z,101709.32
2018-06-09T08:28:44.027Z,101704.87
2018-06-09T08:31:11.205Z,101706.02
2018-06-09T08:33:38.497Z,101709.78
2018-06-09T08:36:05.660Z,101704.29
2018-06-09T08:38:33.390Z,101701.08
2018-06-09T08:41:01.340Z,101697.97
2018-06-09T08:43:29.038Z,101689.88
2018-06-09T08:45:56.856Z,101705.88
2018-06-09T08:48:24.792Z,101688.63
2018-06-09T08:50:52.439Z,101696.84
2018-06-09T08:53:20.218Z,101696.78
2018-06-09T08:55:47.998Z,101702.62
2018-06-09T08:58:15.687Z,101692.77
2018-06-09T09:00:43.504Z,101691.09
2018-06-09T09:03:11.677Z,101684.54
2018-06-09T09:05:39.222Z,101679.66
2018-06-09T09:08:07.090Z,101681.92
2018-06-09T09:10:35.033Z,101677.08
2018-06-09T09:13:02.646Z,101680.69
2018-06-09T09:15:30.450Z,101682.97
2018-06-09T09:17:57.778Z,101675.06
2018-06-09T09:20:24.831Z,101684.17
2018-06-09T09:22:51.964Z,101676.70
2018-06-09T09:25:19.331Z,101680.47
2018-06-09T09:27:47.172Z,101682.75
2018-06-09T09:30:14.942Z,101682.36
2018-06-09T09:32:43.009Z,101679.97
2018-06-09T09:35:10.654Z,101678.52
2018-06-09T09:37:38.518Z,101682.98
2018-06-09T09:40:06.490Z,101684.47
2018-06-09T09:42:34.133Z,101681.67
2018-06-09T09:45:01.861Z,101672.87
2018-06-09T09:47:29.964Z,101668.23
2018-06-09T09:49:57.550Z,101659.87
2018-06-09T09:52:25.338Z,101654.52
2018-06-09T09:54:53.222Z,101660.56
2018-06-09T09:57:20.828Z,101660.52
2018-06-09T09:59:48.641Z,101653.66
2018-06-09T10:02:16.388Z,101658.24
2018-06-09T10:04:44.085Z,101650.61
2018-06-09T10:07:11.744Z,101655.66
2018-06-09T10:09:39.625Z,101661.67
2018-06-09T10:12:07.307Z,101651.44
2018-06-09T10:14:35.153Z,101660.25
2018-06-09T10:17:03.013Z,101616.37
2018-06-09T10:19:30.763Z,101658.94
2018-06-09T10:21:58.624Z,101655.10
2018-06-09T10:24:26.773Z,101654.75
2018-06-09T10:26:54.460Z,101647.59
2018-06-09T10:29:22.227Z,101644.01
2018-06-09T10:31:50.136Z,101643.91
2018-06-09T10:34:17.857Z,101647.53
2018-06-09T10:36:45.602Z,101640.93
2018-06-09T10:39:13.495Z,101586.72
2018-06-09T10:41:41.136Z,101628.52
2018-06-09T10:44:09.005Z,101628.52
2018-06-09T10:46:36.900Z,101630.02
2018-06-09T10:49:04.571Z,101627.70
2018-06-09T10:51:32.354Z,101623.63
2018-06-09T10:54:00.223Z,101624.35
2018-06-09T10:56:27.865Z,101630.98
2018-06-09T10:58:55.817Z,101633.20
2018-06-09T11:01:23.771Z,101624.82
2018-06-09T11:03:51.456Z,101627.91
2018-06-09T11:06:19.271Z,101627.15
2018-06-09T11:08:47.174Z,101613.98
2018-06-09T11:11:14.890Z,101613.22
2018-06-09T11:13:42.681Z,101613.31
2018-06-09T11:16:10.675Z,101614.45
2018-06-09T11:18:38.299Z,101616.30
2018-06-09T11:21:06.148Z,101630.45
2018-06-09T11:23:34.123Z,101628.14
2018-06-09T11:26:01.760Z,101630.27
2018-06-09T11:28:29.552Z,101624.73
2018-06-09T11:30:57.597Z,101629.18
2018-06-09T11:33:25.219Z,101624.89
2018-06-09T11:35:52.926Z,101621.58
2018-06-09T11:38:20.986Z,101621.96
2018-06-09T11:40:48.658Z,101616.59
2018-06-09T11:43:16.421Z,101622.33
2018-06-09T11:45:44.362Z,101607.28
2018-06-09T11:48:11.999Z,101599.94
2018-06-09T11:50:39.860Z,101602.56
2018-06-09T11:53:07.792Z,101604.31
2018-06-09T11:55:35.719Z,101606.55
2018-06-09T11:58:04.150Z,101597.31
2018-06-09T12:00:31.889Z,101596.48
2018-06-09T12:02:59.692Z,101593.30
2018-06-09T12:05:27.417Z,101595.20
2018-06-09T12:07:55.229Z,101593.82
2018-06-09T12:10:23.011Z,101589.79
2018-06-09T12:12:50.736Z,101583.52
2018-06-09T12:15:18.576Z,101594.73
2018-06-09T12:17:46.397Z,101585.09
2018-06-09T12:20:14.210Z,101586.45
2018-06-09T12:22:41.914Z,101581.23
2018-06-09T12:25:09.673Z,101589.99
2018-06-09T12:27:37.390Z,101583.02
2018-06-09T12:30:05.218Z,101583.86
2018-06-09T12:32:33.072Z,101578.43
2018-06-09T12:35:00.864Z,101583.72
2018-06-09T12:37:28.793Z,101582.02
2018-06-09T12:39:56.529Z,101572.02
2018-06-09T12:42:24.208Z,101590.65
2018-06-09T12:44:51.959Z,101589.81
2018-06-09T12:47:20.063Z,101589.22
2018-06-09T12:49:47.820Z,101583.06
2018-06-09T12:52:16.586Z,101582.34
2018-06-09T12:54:44.467Z,101584.95
2018-06-09T12:57:12.431Z,101583.00
2018-06-09T12:59:40.234Z,101578.72
2018-06-09T13:02:07.955Z,101581.92
2018-06-09T13:04:35.750Z,101579.59
2018-06-09T13:07:03.534Z,101568.91
2018-06-09T13:09:31.248Z,101574.32
2018-06-09T13:11:59.102Z,101559.49
2018-06-09T13:14:27.028Z,101565.59
2018-06-09T13:16:54.686Z,101561.50
2018-06-09T13:19:22.507Z,101560.35
2018-06-09T13:21:50.306Z,101560.02
2018-06-09T13:24:18.109Z,101567.11
2018-06-09T13:26:46.905Z,101572.45
2018-06-09T13:29:14.645Z,101564.39
2018-06-09T13:31:42.486Z,101573.39
2018-06-09T13:34:10.236Z,101570.95
2018-06-09T13:36:38.655Z,101570.38
2018-06-09T13:39:07.265Z,101563.26
2018-06-09T13:41:35.363Z,101567.23
2018-06-09T13:44:03.199Z,101518.63
2018-06-09T13:46:31.182Z,101561.63
2018-06-09T13:48:58.867Z,101555.86
2018-06-09T13:51:26.785Z,101558.34
2018-06-09T13:53:54.561Z,101558.47
2018-06-09T13:56:22.447Z,101550.87
2018-06-09T13:58:50.253Z,101553.95
2018-06-09T14:01:18.163Z,101553.75
2018-06-09T14:03:45.975Z,101554.51
2018-06-09T14:06:13.679Z,101554.49
2018-06-09T14:08:41.481Z,101554.28
2018-06-09T14:11:09.351Z,101548.10
2018-06-09T14:13:37.083Z,101550.81
2018-06-09T14:16:04.849Z,101550.80
2018-06-09T14:18:32.621Z,101545.30
2018-06-09T14:21:00.480Z,101547.36
2018-06-09T14:23:28.314Z,101543.93
2018-06-09T14:25:56.056Z,101544.53
2018-06-09T14:28:23.819Z,101542.91
2018-06-09T14:30:52.867Z,101548.20
2018-06-09T14:33:21.616Z,101543.00
2018-06-09T14:35:49.312Z,101536.89
2018-06-09T14:38:17.118Z,101538.36
2018-06-09T14:40:44.964Z,101538.95
2018-06-09T14:43:12.833Z,101548.41
2018-06-09T14:45:40.554Z,101551.39
2018-06-09T14:48:08.385Z,101548.92
2018-06-09T14:50:36.123Z,101545.30
2018-06-09T14:53:04.616Z,101554.73
2018-06-09T14:55:32.284Z,101550.69
2018-06-09T14:58:00.195Z,101556.92
2018-06-09T15:00:28.047Z,101552.46
2018-06-09T15:02:55.779Z,101548.29
2018-06-09T15:05:23.521Z,101544.23
2018-06-09T15:07:51.206Z,101547.86
2018-06-09T15:10:19.102Z,101546.50
2018-06-09T15:12:46.790Z,101537.54
2018-06-09T15:15:14.575Z,101543.58
2018-06-09T15:17:42.454Z,101538.06
2018-06-09T15:20:10.236Z,101532.78
2018-06-09T15:22:38.047Z,101537.06
2018-06-09T15:25:05.855Z,101532.73
2018-06-09T15:27:33.674Z,101525.35
2018-06-09T15:30:01.359Z,101529.86
2018-06-09T15:32:29.123Z,101532.53
2018-06-09T15:34:56.955Z,101530.66
2018-06-09T15:37:24.707Z,101522.52
2018-06-09T15:39:52.428Z,101527.26
2018-06-09T15:42:20.312Z,101523.84
2018-06-09T15:44:48.072Z,101525.66
2018-06-09T15:47:16.026Z,101531.64
2018-06-09T15:49:43.739Z,101525.89
2018-06-09T15:52:11.495Z,101527.94
2018-06-09T15:54:39.393Z,101523.25
2018-06-09T15:57:07.311Z,101526.34
2018-06-09T15:59:34.973Z,101530.86
2018-06-09T16:02:02.732Z,101526.23
2018-06-09T16:04:31.116Z,101536.02
2018-06-09T16:06:58.732Z,101528.97
2018-06-09T16:09:26.500Z,101534.70
2018-06-09T16:11:54.464Z,101531.28
2018-06-09T16:14:22.010Z,101534.56
2018-06-09T16:16:49.697Z,101526.34
2018-06-09T16:19:17.470Z,101518.81
2018-06-09T16:21:45.096Z,101523.03
2018-06-09T16:24:12.942Z,101517.51
2018-06-09T16:26:40.984Z,101518.75
2018-06-09T16:29:08.641Z,101515.16
2018-06-09T16:31:36.341Z,101517.81
2018-06-09T16:34:04.222Z,101517.73
2018-06-09T16:36:31.842Z,101515.01
2018-06-09T16:38:59.826Z,101516.46
2018-06-09T16:41:27.775Z,101518.68
2018-06-09T16:43:55.400Z,101518.79
2018-06-09T16:46:23.409Z,101510.20
2018-06-09T16:48:51.268Z,101510.93
2018-06-09T16:51:18.865Z,101519.73
2018-06-09T16:53:46.655Z,101515.91
2018-06-09T16:56:14.549Z,101515.91
2018-06-09T16:58:42.150Z,101514.05
2018-06-09T17:01:09.959Z,101520.48
2018-06-09T17:03:37.903Z,101517.44
2018-06-09T17:06:05.517Z,101524.05
2018-06-09T17:08:33.388Z,101513.58
2018-06-09T17:11:01.508Z,101520.78
2018-06-09T17:13:29.222Z,101522.34
2018-06-09T17:15:57.188Z,101521.61
2018-06-09T17:18:24.942Z,101519.71
2018-06-09T17:20:52.564Z,101522.11
2018-06-09T17:23:20.267Z,101521.73
2018-06-09T17:25:48.057Z,101522.61
2018-06-09T17:28:15.659Z,101521.37
2018-06-09T17:30:43.479Z,101522.61
2018-06-09T17:33:11.440Z,101519.73
2018-06-09T17:35:39.101Z,101516.94
2018-06-09T17:38:06.931Z,101517.20
2018-06-09T17:40:34.800Z,101527.18
2018-06-09T17:43:02.479Z,101524.59
2018-06-09T17:45:30.263Z,101529.98
2018-06-09T17:47:58.797Z,101530.66
2018-06-09T17:50:26.466Z,101533.25
2018-06-09T17:52:54.272Z,101529.58
2018-06-09T17:55:22.236Z,101531.55
2018-06-09T17:57:50.116Z,101526.48
2018-06-09T18:00:17.951Z,101533.37
2018-06-09T18:02:45.592Z,101528.87
2018-06-09T18:05:13.255Z,101529.95
2018-06-09T18:07:41.010Z,101535.13
2018-06-09T18:10:08.844Z,101523.19
2018-06-09T18:12:36.919Z,101523.95
2018-06-09T18:15:04.849Z,101526.75
2018-06-09T18:17:32.699Z,101524.16
2018-06-09T18:20:00.584Z,101521.37
2018-06-09T18:22:28.470Z,101520.76
2018-06-09T18:24:56.306Z,101521.73
2018-06-09T18:27:24.163Z,101521.02
2018-06-09T18:29:52.236Z,101524.12
2018-06-09T18:32:20.102Z,101523.55
2018-06-09T18:34:47.969Z,101519.83
2018-06-09T18:37:15.804Z,101522.36
2018-06-09T18:39:43.602Z,101522.56
2018-06-09T18:42:11.409Z,101521.48
2018-06-09T18:44:39.263Z,101518.69
2018-06-09T18:47:07.146Z,101515.53
2018-06-09T18:49:34.830Z,101522.52
2018-06-09T18:52:02.645Z,101525.20
2018-06-09T18:54:30.450Z,101521.27
2018-06-09T18:56:58.211Z,101515.54
2018-06-09T18:59:26.122Z,101522.20
2018-06-09T19:01:53.874Z,101517.23
2018-06-09T19:04:21.679Z,101517.27
2018-06-09T19:06:49.564Z,101519.65
2018-06-09T19:09:17.223Z,101512.93
2018-06-09T19:11:44.998Z,101525.69
2018-06-09T19:14:12.818Z,101519.74
2018-06-09T19:16:40.738Z,101517.77
2018-06-09T19:19:08.519Z,101516.02
2018-06-09T19:21:36.315Z,101521.22
2018-06-09T19:24:05.030Z,101521.81
2018-06-09T19:26:32.827Z,101523.14
2018-06-09T19:29:00.607Z,101521.06
2018-06-09T19:31:28.464Z,101525.84
2018-06-09T19:33:56.369Z,101523.92
2018-06-09T19:36:24.057Z,101523.75
2018-06-09T19:38:51.786Z,101526.06
2018-06-09T19:41:19.585Z,101526.53
2018-06-09T19:43:47.253Z,101526.45
2018-06-09T19:46:15.122Z,101523.18
2018-06-09T19:48:42.868Z,101506.50
2018-06-09T19:51:10.825Z,101519.81
2018-06-09T19:53:38.683Z,101520.88
2018-06-09T19:56:06.494Z,101515.52
2018-06-09T19:58:34.596Z,101517.79
2018-06-09T20:01:02.516Z,101521.45
2018-06-09T20:03:30.165Z,101522.51
2018-06-09T20:05:58.033Z,101524.04
2018-06-09T20:08:25.828Z,101521.23
2018-06-09T20:10:53.527Z,101520.59
2018-06-09T20:13:22.513Z,101516.16
2018-06-09T20:15:50.428Z,101521.81
2018-06-09T20:18:18.087Z,101519.31
2018-06-09T20:20:46.060Z,101519.09
2018-06-09T20:23:13.748Z,101512.30
2018-06-09T20:25:41.404Z,101519.16
2018-06-09T20:28:09.425Z,101519.25
2018-06-09T20:30:37.430Z,101521.56
2018-06-09T20:33:05.030Z,101518.00
2018-06-09T20:35:33.144Z,101507.93
2018-06-09T20:38:01.100Z,101514.73
2018-06-09T20:40:28.813Z,101507.93
2018-06-09T20:42:56.761Z,101509.55
2018-06-09T20:45:24.561Z,101516.91
2018-06-09T20:47:52.225Z,101515.75
2018-06-09T20:50:20.193Z,101516.20
2018-06-09T20:52:48.186Z,101516.94
2018-06-09T20:55:15.813Z,101526.13
2018-06-09T20:57:43.980Z,101516.43
2018-06-09T21:00:11.793Z,101519.79
2018-06-09T21:02:39.393Z,101518.72
2018-06-09T21:05:07.148Z,101515.26
2018-06-09T21:07:34.959Z,101512.06
2018-06-09T21:10:02.647Z,101518.66
2018-06-09T21:12:30.637Z,101521.97
2018-06-09T21:14:58.471Z,101520.89
2018-06-09T21:17:26.123Z,101515.72
2018-06-09T21:19:53.954Z,101516.86
2018-06-09T21:22:21.750Z,101514.55
2018-06-09T21:24:49.412Z,101516.86
2018-06-09T21:27:23.201Z,101518.75
2018-06-09T21:29:56.717Z,101520.70
2018-06-09T21:32:28.395Z,101525.16
2018-06-09T21:35:11.803Z,101521.69
2018-06-09T21:37:42.765Z,101519.51
2018-06-09T21:40:15.903Z,101519.73
2018-06-09T21:42:44.186Z,101528.02
2018-06-09T21:45:16.593Z,101522.84
2018-06-09T21:47:44.490Z,101523.89
2018-06-09T21:50:12.328Z,101527.11
2018-06-09T21:52:40.864Z,101527.20
2018-06-09T21:55:08.820Z,101518.33
2018-06-09T21:57:36.545Z,101524.20
2018-06-09T22:00:06.432Z,101509.81
2018-06-09T22:02:34.352Z,101512.28
2018-06-09T22:05:02.091Z,101515.68
2018-06-09T22:07:29.719Z,101513.17
2018-06-09T22:09:57.661Z,101520.03
2018-06-09T22:12:25.441Z,101520.20
2018-06-09T22:14:53.138Z,101516.73
2018-06-09T22:17:21.197Z,101523.20
2018-06-09T22:19:49.108Z,101512.67
2018-06-09T22:22:16.802Z,101519.44
2018-06-09T22:24:44.764Z,101510.33
2018-06-09T22:27:12.677Z,101506.65
2018-06-09T22:29:40.421Z,101510.80
2018-06-09T22:32:08.741Z,101499.09
2018-06-09T22:34:36.425Z,101496.91
2018-06-09T22:37:04.274Z,101501.77
2018-06-09T22:39:32.001Z,101495.95
2018-06-09T22:41:59.729Z,101501.00
2018-06-09T22:44:27.563Z,101497.08
2018-06-09T22:46:55.305Z,101494.07
2018-06-09T22:49:23.215Z,101488.73
2018-06-09T22:51:50.950Z,101495.03
2018-06-09T22:54:18.704Z,101484.96
2018-06-09T22:56:46.602Z,101492.30
2018-06-09T22:59:14.395Z,101488.67
2018-06-09T23:01:42.107Z,101490.89
2018-06-09T23:04:09.964Z,101488.13
2018-06-09T23:06:37.872Z,101421.82
2018-06-09T23:09:07.442Z,101486.62
2018-06-09T23:11:35.295Z,101479.86
2018-06-09T23:14:03.377Z,101478.53
2018-06-09T23:16:31.396Z,101474.02
2018-06-09T23:18:59.487Z,101473.64
2018-06-09T23:21:27.250Z,101475.44
2018-06-09T23:23:55.014Z,101472.84
2018-06-09T23:26:22.825Z,101472.39
2018-06-09T23:28:50.641Z,101468.00
2018-06-09T23:31:18.329Z,101468.84
2018-06-09T23:33:46.142Z,101471.92
2018-06-09T23:36:13.919Z,101469.72
2018-06-09T23:38:41.609Z,101466.08
2018-06-09T23:41:09.311Z,101468.46
2018-06-09T23:43:37.191Z,101469.00
2018-06-09T23:46:04.973Z,101463.66
2018-06-09T23:48:32.896Z,101464.53
2018-06-09T23:51:00.709Z,101461.94
2018-06-09T23:53:28.529Z,101465.66
2018-06-09T23:55:56.372Z,101466.98
2018-06-09T23:58:24.150Z,101467.91
